McKinney, Arkansas
Current Conditions -  °F | °C
As of 3:53 PM on Wednesday 28 Jan 2015 (Local Time) from KLLQ Reporting Station
Clear Clear  
Wind Chill: 66°   Ceiling: Unl
Heat Index: 66°   Visibility: 10mi
Dew Point: 39°   Wind: 7mph
Humidity: 37%   Direction: 150°SSE
Pressure: 30.12"   Gusts: NA
Location:  33.6176°N, 92.1466°W
Report Text: KLLQ 282153Z AUTO 15006KT 10SM CLR 19/04 A3012 RMK AO2 SLP197 T01890039
Loading
Personal Weather Stations






























Interactive Weather Map New forecast layout! Learn more

10-Day Weather Forecast

Advertisements
Track Severe Weather on mobile